sensor_id;sensor_type;location;lat;lon;timestamp;P1;durP1;ratioP1;P2;durP2;ratioP2
4986;SDS011;12674;51.500;7.552;2024-02-21T00:00:27;18.60;;;9.47;;
4986;SDS011;12674;51.500;7.552;2024-02-21T00:02:30;30.97;;;9.60;;
4986;SDS011;12674;51.500;7.552;2024-02-21T00:04:33;29.00;;;9.67;;
4986;SDS011;12674;51.500;7.552;2024-02-21T00:06:36;25.03;;;9.10;;
4986;SDS011;12674;51.500;7.552;2024-02-21T00:08:39;21.93;;;8.30;;
4986;SDS011;12674;51.500;7.552;2024-02-21T00:10:43;22.43;;;9.07;;
4986;SDS011;12674;51.500;7.552;2024-02-21T00:12:46;27.20;;;10.60;;
4986;SDS011;12674;51.500;7.552;2024-02-21T00:14:50;23.37;;;9.43;;
4986;SDS011;12674;51.500;7.552;2024-02-21T00:16:52;27.67;;;10.37;;
4986;SDS011;12674;51.500;7.552;2024-02-21T00:18:55;21.87;;;8.80;;
4986;SDS011;12674;51.500;7.552;2024-02-21T00:20:58;17.30;;;9.40;;
4986;SDS011;12674;51.500;7.552;2024-02-21T00:23:05;25.50;;;9.73;;
4986;SDS011;12674;51.500;7.552;2024-02-21T00:25:08;19.07;;;9.20;;
4986;SDS011;12674;51.500;7.552;2024-02-21T00:27:11;18.03;;;8.73;;
4986;SDS011;12674;51.500;7.552;2024-02-21T00:29:17;27.20;;;9.63;;
4986;SDS011;12674;51.500;7.552;2024-02-21T00:31:21;20.90;;;9.20;;
4986;SDS011;12674;51.500;7.552;2024-02-21T00:33:24;24.20;;;9.60;;
4986;SDS011;12674;51.500;7.552;2024-02-21T00:35:27;23.27;;;9.67;;
4986;SDS011;12674;51.500;7.552;2024-02-21T00:37:30;24.33;;;10.03;;
4986;SDS011;12674;51.500;7.552;2024-02-21T00:39:33;25.50;;;9.20;;
4986;SDS011;12674;51.500;7.552;2024-02-21T00:41:36;26.57;;;9.37;;
4986;SDS011;12674;51.500;7.552;2024-02-21T00:43:41;29.70;;;9.30;;
4986;SDS011;12674;51.500;7.552;2024-02-21T00:45:43;31.13;;;11.20;;
4986;SDS011;12674;51.500;7.552;2024-02-21T00:47:47;22.30;;;9.40;;
4986;SDS011;12674;51.500;7.552;2024-02-21T00:49:50;21.47;;;9.87;;
4986;SDS011;12674;51.500;7.552;2024-02-21T00:51:53;21.37;;;9.40;;
4986;SDS011;12674;51.500;7.552;2024-02-21T00:53:56;17.40;;;8.53;;
4986;SDS011;12674;51.500;7.552;2024-02-21T00:55:59;22.63;;;9.40;;
4986;SDS011;12674;51.500;7.552;2024-02-21T00:58:05;24.70;;;9.70;;
4986;SDS011;12674;51.500;7.552;2024-02-21T01:00:08;21.30;;;9.93;;
4986;SDS011;12674;51.500;7.552;2024-02-21T01:02:13;22.17;;;9.80;;
4986;SDS011;12674;51.500;7.552;2024-02-21T01:04:18;25.50;;;10.40;;
4986;SDS011;12674;51.500;7.552;2024-02-21T01:06:21;25.80;;;9.57;;
4986;SDS011;12674;51.500;7.552;2024-02-21T01:08:25;22.80;;;8.23;;
4986;SDS011;12674;51.500;7.552;2024-02-21T01:10:32;24.37;;;10.43;;
4986;SDS011;12674;51.500;7.552;2024-02-21T01:12:39;22.90;;;9.40;;
4986;SDS011;12674;51.500;7.552;2024-02-21T01:14:42;20.80;;;9.87;;
4986;SDS011;12674;51.500;7.552;2024-02-21T01:16:44;25.83;;;10.43;;
4986;SDS011;12674;51.500;7.552;2024-02-21T01:18:50;20.00;;;9.90;;
4986;SDS011;12674;51.500;7.552;2024-02-21T01:20:53;23.30;;;9.17;;
4986;SDS011;12674;51.500;7.552;2024-02-21T01:22:56;21.93;;;9.77;;
4986;SDS011;12674;51.500;7.552;2024-02-21T01:24:59;22.00;;;9.27;;
4986;SDS011;12674;51.500;7.552;2024-02-21T01:27:02;30.87;;;10.93;;
4986;SDS011;12674;51.500;7.552;2024-02-21T01:29:05;23.30;;;8.47;;
4986;SDS011;12674;51.500;7.552;2024-02-21T01:31:08;23.23;;;9.70;;
4986;SDS011;12674;51.500;7.552;2024-02-21T01:33:11;25.43;;;10.03;;
4986;SDS011;12674;51.500;7.552;2024-02-21T01:35:14;26.20;;;9.20;;
4986;SDS011;12674;51.500;7.552;2024-02-21T01:37:19;21.17;;;9.30;;
4986;SDS011;12674;51.500;7.552;2024-02-21T01:39:23;24.30;;;9.00;;
4986;SDS011;12674;51.500;7.552;2024-02-21T01:41:26;19.33;;;8.37;;
4986;SDS011;12674;51.500;7.552;2024-02-21T01:43:28;20.63;;;8.63;;
4986;SDS011;12674;51.500;7.552;2024-02-21T01:45:31;18.37;;;8.40;;
4986;SDS011;12674;51.500;7.552;2024-02-21T01:47:34;27.00;;;9.77;;
4986;SDS011;12674;51.500;7.552;2024-02-21T01:49:41;18.83;;;8.53;;
4986;SDS011;12674;51.500;7.552;2024-02-21T01:51:44;23.20;;;9.47;;
4986;SDS011;12674;51.500;7.552;2024-02-21T01:53:49;19.07;;;9.63;;
4986;SDS011;12674;51.500;7.552;2024-02-21T01:55:53;17.13;;;8.13;;
4986;SDS011;12674;51.500;7.552;2024-02-21T01:57:55;23.63;;;8.23;;
4986;SDS011;12674;51.500;7.552;2024-02-21T01:59:58;18.63;;;8.60;;
4986;SDS011;12674;51.500;7.552;2024-02-21T02:02:01;20.73;;;8.20;;
4986;SDS011;12674;51.500;7.552;2024-02-21T02:04:04;19.00;;;8.70;;
4986;SDS011;12674;51.500;7.552;2024-02-21T02:06:07;36.47;;;9.73;;
4986;SDS011;12674;51.500;7.552;2024-02-21T02:08:09;23.20;;;8.30;;
4986;SDS011;12674;51.500;7.552;2024-02-21T02:10:14;20.00;;;10.07;;
4986;SDS011;12674;51.500;7.552;2024-02-21T02:12:17;22.10;;;9.70;;
4986;SDS011;12674;51.500;7.552;2024-02-21T02:14:20;21.30;;;8.80;;
4986;SDS011;12674;51.500;7.552;2024-02-21T02:16:22;29.93;;;9.50;;
4986;SDS011;12674;51.500;7.552;2024-02-21T02:18:25;21.10;;;8.90;;
4986;SDS011;12674;51.500;7.552;2024-02-21T02:20:28;21.57;;;8.70;;
4986;SDS011;12674;51.500;7.552;2024-02-21T02:22:32;21.93;;;8.90;;
4986;SDS011;12674;51.500;7.552;2024-02-21T02:24:38;26.10;;;8.77;;
4986;SDS011;12674;51.500;7.552;2024-02-21T02:26:41;29.83;;;8.40;;
4986;SDS011;12674;51.500;7.552;2024-02-21T02:28:44;25.70;;;9.40;;
4986;SDS011;12674;51.500;7.552;2024-02-21T02:30:46;22.63;;;8.20;;
4986;SDS011;12674;51.500;7.552;2024-02-21T02:32:50;24.47;;;8.93;;
4986;SDS011;12674;51.500;7.552;2024-02-21T02:34:54;24.67;;;8.60;;
4986;SDS011;12674;51.500;7.552;2024-02-21T02:36:58;19.30;;;8.00;;
4986;SDS011;12674;51.500;7.552;2024-02-21T02:39:00;24.00;;;8.33;;
4986;SDS011;12674;51.500;7.552;2024-02-21T02:41:05;24.00;;;8.57;;
4986;SDS011;12674;51.500;7.552;2024-02-21T02:43:07;28.43;;;8.43;;
4986;SDS011;12674;51.500;7.552;2024-02-21T02:45:10;16.97;;;7.50;;
4986;SDS011;12674;51.500;7.552;2024-02-21T02:47:13;21.87;;;8.57;;
4986;SDS011;12674;51.500;7.552;2024-02-21T02:49:15;26.13;;;8.63;;
4986;SDS011;12674;51.500;7.552;2024-02-21T02:51:19;21.87;;;8.73;;
4986;SDS011;12674;51.500;7.552;2024-02-21T02:53:23;19.83;;;8.40;;
4986;SDS011;12674;51.500;7.552;2024-02-21T02:55:26;31.83;;;8.60;;
4986;SDS011;12674;51.500;7.552;2024-02-21T02:57:30;21.07;;;8.60;;
4986;SDS011;12674;51.500;7.552;2024-02-21T02:59:36;16.23;;;7.50;;
4986;SDS011;12674;51.500;7.552;2024-02-21T03:01:41;23.13;;;8.87;;
4986;SDS011;12674;51.500;7.552;2024-02-21T03:03:44;18.53;;;8.00;;
4986;SDS011;12674;51.500;7.552;2024-02-21T03:05:48;20.40;;;9.20;;
4986;SDS011;12674;51.500;7.552;2024-02-21T03:07:52;23.53;;;8.93;;
4986;SDS011;12674;51.500;7.552;2024-02-21T03:09:55;24.33;;;9.00;;
4986;SDS011;12674;51.500;7.552;2024-02-21T03:11:59;24.33;;;8.60;;
4986;SDS011;12674;51.500;7.552;2024-02-21T03:14:05;21.27;;;9.83;;
4986;SDS011;12674;51.500;7.552;2024-02-21T03:16:08;20.13;;;9.23;;
4986;SDS011;12674;51.500;7.552;2024-02-21T03:18:12;26.77;;;8.83;;
4986;SDS011;12674;51.500;7.552;2024-02-21T03:20:15;22.77;;;8.87;;
4986;SDS011;12674;51.500;7.552;2024-02-21T03:22:18;26.83;;;8.60;;
4986;SDS011;12674;51.500;7.552;2024-02-21T03:24:21;21.40;;;8.93;;
4986;SDS011;12674;51.500;7.552;2024-02-21T03:26:27;20.43;;;8.27;;
4986;SDS011;12674;51.500;7.552;2024-02-21T03:28:32;21.70;;;8.33;;
4986;SDS011;12674;51.500;7.552;2024-02-21T03:30:42;18.77;;;7.57;;
4986;SDS011;12674;51.500;7.552;2024-02-21T03:32:45;21.90;;;7.67;;
4986;SDS011;12674;51.500;7.552;2024-02-21T03:34:48;13.40;;;6.83;;
4986;SDS011;12674;51.500;7.552;2024-02-21T03:36:52;19.83;;;7.50;;
4986;SDS011;12674;51.500;7.552;2024-02-21T03:38:55;19.13;;;7.30;;
4986;SDS011;12674;51.500;7.552;2024-02-21T03:40:58;14.20;;;6.90;;
4986;SDS011;12674;51.500;7.552;2024-02-21T03:43:02;24.67;;;8.23;;
4986;SDS011;12674;51.500;7.552;2024-02-21T03:45:06;17.40;;;7.17;;
4986;SDS011;12674;51.500;7.552;2024-02-21T03:47:11;17.50;;;7.60;;
4986;SDS011;12674;51.500;7.552;2024-02-21T03:49:14;23.77;;;7.93;;
4986;SDS011;12674;51.500;7.552;2024-02-21T03:51:17;20.87;;;7.17;;
4986;SDS011;12674;51.500;7.552;2024-02-21T03:53:20;18.37;;;7.60;;
4986;SDS011;12674;51.500;7.552;2024-02-21T03:55:23;28.43;;;7.70;;
4986;SDS011;12674;51.500;7.552;2024-02-21T03:57:26;23.13;;;8.13;;
4986;SDS011;12674;51.500;7.552;2024-02-21T03:59:30;23.67;;;7.50;;
4986;SDS011;12674;51.500;7.552;2024-02-21T04:01:32;20.47;;;7.67;;
4986;SDS011;12674;51.500;7.552;2024-02-21T04:03:37;20.00;;;7.90;;
4986;SDS011;12674;51.500;7.552;2024-02-21T04:05:43;19.30;;;7.50;;
4986;SDS011;12674;51.500;7.552;2024-02-21T04:07:46;21.53;;;7.53;;
4986;SDS011;12674;51.500;7.552;2024-02-21T04:09:49;23.83;;;7.10;;
4986;SDS011;12674;51.500;7.552;2024-02-21T04:11:55;17.63;;;7.50;;
4986;SDS011;12674;51.500;7.552;2024-02-21T04:13:58;17.83;;;7.53;;
4986;SDS011;12674;51.500;7.552;2024-02-21T04:16:04;20.43;;;8.27;;
4986;SDS011;12674;51.500;7.552;2024-02-21T04:18:07;19.13;;;7.30;;
4986;SDS011;12674;51.500;7.552;2024-02-21T04:20:15;17.37;;;8.43;;
4986;SDS011;12674;51.500;7.552;2024-02-21T04:22:19;14.23;;;7.37;;
4986;SDS011;12674;51.500;7.552;2024-02-21T04:24:24;17.30;;;7.33;;
4986;SDS011;12674;51.500;7.552;2024-02-21T04:26:29;18.97;;;7.73;;
4986;SDS011;12674;51.500;7.552;2024-02-21T04:28:32;17.10;;;7.10;;
4986;SDS011;12674;51.500;7.552;2024-02-21T04:30:36;21.03;;;7.73;;
4986;SDS011;12674;51.500;7.552;2024-02-21T04:32:39;18.23;;;7.10;;
4986;SDS011;12674;51.500;7.552;2024-02-21T04:34:42;12.40;;;6.77;;
4986;SDS011;12674;51.500;7.552;2024-02-21T04:36:47;16.17;;;7.30;;
4986;SDS011;12674;51.500;7.552;2024-02-21T04:38:50;25.00;;;7.77;;
4986;SDS011;12674;51.500;7.552;2024-02-21T04:40:52;18.33;;;7.53;;
4986;SDS011;12674;51.500;7.552;2024-02-21T04:42:55;19.10;;;7.33;;
4986;SDS011;12674;51.500;7.552;2024-02-21T04:44:59;21.23;;;7.47;;
4986;SDS011;12674;51.500;7.552;2024-02-21T04:47:02;16.57;;;7.13;;
4986;SDS011;12674;51.500;7.552;2024-02-21T04:49:05;18.17;;;7.27;;
4986;SDS011;12674;51.500;7.552;2024-02-21T04:51:08;24.80;;;7.90;;
4986;SDS011;12674;51.500;7.552;2024-02-21T04:53:13;22.10;;;7.37;;
4986;SDS011;12674;51.500;7.552;2024-02-21T04:55:16;16.27;;;7.63;;
4986;SDS011;12674;51.500;7.552;2024-02-21T04:57:19;22.83;;;7.77;;
4986;SDS011;12674;51.500;7.552;2024-02-21T04:59:22;23.47;;;8.27;;
4986;SDS011;12674;51.500;7.552;2024-02-21T05:01:24;17.50;;;7.73;;
4986;SDS011;12674;51.500;7.552;2024-02-21T05:03:31;21.23;;;7.10;;
4986;SDS011;12674;51.500;7.552;2024-02-21T05:05:34;17.63;;;6.37;;
4986;SDS011;12674;51.500;7.552;2024-02-21T05:07:37;21.57;;;6.90;;
4986;SDS011;12674;51.500;7.552;2024-02-21T05:09:41;25.50;;;7.77;;
4986;SDS011;12674;51.500;7.552;2024-02-21T05:11:44;16.33;;;6.73;;
4986;SDS011;12674;51.500;7.552;2024-02-21T05:13:47;17.47;;;6.80;;
4986;SDS011;12674;51.500;7.552;2024-02-21T05:15:50;19.07;;;7.17;;
4986;SDS011;12674;51.500;7.552;2024-02-21T05:17:53;11.10;;;6.03;;
4986;SDS011;12674;51.500;7.552;2024-02-21T05:19:56;12.80;;;6.50;;
4986;SDS011;12674;51.500;7.552;2024-02-21T05:21:59;18.47;;;7.67;;
4986;SDS011;12674;51.500;7.552;2024-02-21T05:24:02;17.43;;;6.57;;
4986;SDS011;12674;51.500;7.552;2024-02-21T05:26:07;18.70;;;6.97;;
4986;SDS011;12674;51.500;7.552;2024-02-21T05:28:09;14.57;;;6.90;;
4986;SDS011;12674;51.500;7.552;2024-02-21T05:30:12;23.63;;;6.50;;
4986;SDS011;12674;51.500;7.552;2024-02-21T05:32:15;24.40;;;7.27;;
4986;SDS011;12674;51.500;7.552;2024-02-21T05:34:18;20.10;;;6.80;;
4986;SDS011;12674;51.500;7.552;2024-02-21T05:36:21;14.70;;;6.20;;
4986;SDS011;12674;51.500;7.552;2024-02-21T05:38:23;20.70;;;6.67;;
4986;SDS011;12674;51.500;7.552;2024-02-21T05:40:27;15.70;;;6.53;;
4986;SDS011;12674;51.500;7.552;2024-02-21T05:42:31;14.33;;;6.37;;
4986;SDS011;12674;51.500;7.552;2024-02-21T05:44:34;18.63;;;6.33;;
4986;SDS011;12674;51.500;7.552;2024-02-21T05:46:37;27.13;;;6.23;;
4986;SDS011;12674;51.500;7.552;2024-02-21T05:48:40;15.33;;;5.93;;
4986;SDS011;12674;51.500;7.552;2024-02-21T05:50:43;17.50;;;7.03;;
4986;SDS011;12674;51.500;7.552;2024-02-21T05:52:46;23.23;;;7.33;;
4986;SDS011;12674;51.500;7.552;2024-02-21T05:54:49;12.20;;;5.53;;
4986;SDS011;12674;51.500;7.552;2024-02-21T05:56:51;16.53;;;5.60;;
4986;SDS011;12674;51.500;7.552;2024-02-21T05:58:56;17.87;;;6.30;;
4986;SDS011;12674;51.500;7.552;2024-02-21T06:00:59;13.70;;;5.50;;
4986;SDS011;12674;51.500;7.552;2024-02-21T06:03:03;15.70;;;5.40;;
4986;SDS011;12674;51.500;7.552;2024-02-21T06:05:07;14.83;;;6.10;;
4986;SDS011;12674;51.500;7.552;2024-02-21T06:07:10;7.90;;;4.63;;
4986;SDS011;12674;51.500;7.552;2024-02-21T06:09:13;10.40;;;4.80;;
4986;SDS011;12674;51.500;7.552;2024-02-21T06:11:16;19.37;;;6.77;;
4986;SDS011;12674;51.500;7.552;2024-02-21T06:13:19;16.30;;;6.17;;
4986;SDS011;12674;51.500;7.552;2024-02-21T06:15:25;15.53;;;5.57;;
4986;SDS011;12674;51.500;7.552;2024-02-21T06:17:28;10.27;;;5.03;;
4986;SDS011;12674;51.500;7.552;2024-02-21T06:19:31;17.70;;;6.03;;
4986;SDS011;12674;51.500;7.552;2024-02-21T06:21:33;14.07;;;5.07;;
4986;SDS011;12674;51.500;7.552;2024-02-21T06:23:36;14.50;;;5.20;;
4986;SDS011;12674;51.500;7.552;2024-02-21T06:25:39;11.00;;;4.90;;
4986;SDS011;12674;51.500;7.552;2024-02-21T06:27:43;11.63;;;5.70;;
4986;SDS011;12674;51.500;7.552;2024-02-21T06:29:46;9.20;;;5.43;;
4986;SDS011;12674;51.500;7.552;2024-02-21T06:31:50;18.10;;;5.23;;
4986;SDS011;12674;51.500;7.552;2024-02-21T06:33:53;18.30;;;5.37;;
4986;SDS011;12674;51.500;7.552;2024-02-21T06:35:56;10.20;;;4.77;;
4986;SDS011;12674;51.500;7.552;2024-02-21T06:37:59;13.07;;;4.87;;
4986;SDS011;12674;51.500;7.552;2024-02-21T06:40:01;11.43;;;4.90;;
4986;SDS011;12674;51.500;7.552;2024-02-21T06:42:05;12.83;;;5.03;;
4986;SDS011;12674;51.500;7.552;2024-02-21T06:44:07;9.40;;;3.57;;
4986;SDS011;12674;51.500;7.552;2024-02-21T06:46:10;11.13;;;4.27;;
4986;SDS011;12674;51.500;7.552;2024-02-21T06:48:13;13.57;;;4.43;;
4986;SDS011;12674;51.500;7.552;2024-02-21T06:50:17;13.50;;;4.43;;
4986;SDS011;12674;51.500;7.552;2024-02-21T06:52:20;9.27;;;5.23;;
4986;SDS011;12674;51.500;7.552;2024-02-21T06:54:24;13.87;;;4.33;;
4986;SDS011;12674;51.500;7.552;2024-02-21T06:56:26;11.27;;;4.60;;
4986;SDS011;12674;51.500;7.552;2024-02-21T06:58:30;7.67;;;3.40;;
4986;SDS011;12674;51.500;7.552;2024-02-21T07:00:33;10.33;;;3.60;;
4986;SDS011;12674;51.500;7.552;2024-02-21T07:02:35;17.30;;;3.97;;
4986;SDS011;12674;51.500;7.552;2024-02-21T07:04:39;11.50;;;4.40;;
4986;SDS011;12674;51.500;7.552;2024-02-21T07:06:43;12.03;;;4.07;;
4986;SDS011;12674;51.500;7.552;2024-02-21T07:08:46;9.73;;;4.33;;
4986;SDS011;12674;51.500;7.552;2024-02-21T07:10:49;15.10;;;4.07;;
4986;SDS011;12674;51.500;7.552;2024-02-21T07:12:52;11.67;;;4.20;;
4986;SDS011;12674;51.500;7.552;2024-02-21T07:14:55;15.97;;;3.70;;
4986;SDS011;12674;51.500;7.552;2024-02-21T07:16:57;8.00;;;3.73;;
4986;SDS011;12674;51.500;7.552;2024-02-21T07:19:02;9.90;;;4.17;;
4986;SDS011;12674;51.500;7.552;2024-02-21T07:21:06;15.40;;;5.27;;
4986;SDS011;12674;51.500;7.552;2024-02-21T07:23:09;10.23;;;3.80;;
4986;SDS011;12674;51.500;7.552;2024-02-21T07:25:12;13.63;;;4.07;;
4986;SDS011;12674;51.500;7.552;2024-02-21T07:27:15;14.80;;;4.80;;
4986;SDS011;12674;51.500;7.552;2024-02-21T07:29:18;19.77;;;4.20;;
4986;SDS011;12674;51.500;7.552;2024-02-21T07:31:21;10.13;;;3.97;;
4986;SDS011;12674;51.500;7.552;2024-02-21T07:33:24;12.23;;;4.30;;
4986;SDS011;12674;51.500;7.552;2024-02-21T07:35:27;9.63;;;3.43;;
4986;SDS011;12674;51.500;7.552;2024-02-21T07:37:32;10.80;;;4.40;;
4986;SDS011;12674;51.500;7.552;2024-02-21T07:39:35;16.50;;;4.90;;
4986;SDS011;12674;51.500;7.552;2024-02-21T07:41:38;15.43;;;4.03;;
4986;SDS011;12674;51.500;7.552;2024-02-21T07:43:43;13.60;;;4.60;;
4986;SDS011;12674;51.500;7.552;2024-02-21T07:45:45;10.93;;;4.07;;
4986;SDS011;12674;51.500;7.552;2024-02-21T07:47:47;8.60;;;4.30;;
4986;SDS011;12674;51.500;7.552;2024-02-21T07:49:51;12.70;;;4.03;;
4986;SDS011;12674;51.500;7.552;2024-02-21T07:51:54;9.50;;;4.03;;
4986;SDS011;12674;51.500;7.552;2024-02-21T07:53:58;11.13;;;4.50;;
4986;SDS011;12674;51.500;7.552;2024-02-21T07:56:01;20.40;;;5.87;;
4986;SDS011;12674;51.500;7.552;2024-02-21T07:58:04;11.23;;;4.77;;
4986;SDS011;12674;51.500;7.552;2024-02-21T08:00:08;11.50;;;4.47;;
4986;SDS011;12674;51.500;7.552;2024-02-21T08:02:16;15.27;;;5.80;;
4986;SDS011;12674;51.500;7.552;2024-02-21T08:04:19;7.30;;;3.70;;
4986;SDS011;12674;51.500;7.552;2024-02-21T08:06:22;9.50;;;4.70;;
4986;SDS011;12674;51.500;7.552;2024-02-21T08:08:25;9.67;;;4.30;;
4986;SDS011;12674;51.500;7.552;2024-02-21T08:10:30;12.07;;;4.87;;
4986;SDS011;12674;51.500;7.552;2024-02-21T08:12:33;10.63;;;4.40;;
4986;SDS011;12674;51.500;7.552;2024-02-21T08:14:36;13.17;;;5.07;;
4986;SDS011;12674;51.500;7.552;2024-02-21T08:16:39;15.93;;;4.80;;
4986;SDS011;12674;51.500;7.552;2024-02-21T08:18:43;12.40;;;4.97;;
4986;SDS011;12674;51.500;7.552;2024-02-21T08:20:46;21.30;;;5.90;;
4986;SDS011;12674;51.500;7.552;2024-02-21T08:22:48;13.50;;;5.07;;
4986;SDS011;12674;51.500;7.552;2024-02-21T08:24:51;11.23;;;5.60;;
4986;SDS011;12674;51.500;7.552;2024-02-21T08:26:54;15.97;;;5.20;;
4986;SDS011;12674;51.500;7.552;2024-02-21T08:28:57;13.83;;;5.70;;
4986;SDS011;12674;51.500;7.552;2024-02-21T08:31:02;28.13;;;5.20;;
4986;SDS011;12674;51.500;7.552;2024-02-21T08:33:05;13.10;;;4.60;;
4986;SDS011;12674;51.500;7.552;2024-02-21T08:35:08;15.07;;;5.40;;
4986;SDS011;12674;51.500;7.552;2024-02-21T08:37:12;11.23;;;4.93;;
4986;SDS011;12674;51.500;7.552;2024-02-21T08:39:15;13.17;;;4.40;;
4986;SDS011;12674;51.500;7.552;2024-02-21T08:41:18;13.87;;;5.00;;
4986;SDS011;12674;51.500;7.552;2024-02-21T08:43:21;11.07;;;4.20;;
4986;SDS011;12674;51.500;7.552;2024-02-21T08:45:25;17.57;;;5.63;;
4986;SDS011;12674;51.500;7.552;2024-02-21T08:47:27;15.33;;;5.93;;
4986;SDS011;12674;51.500;7.552;2024-02-21T08:49:32;10.50;;;4.93;;
4986;SDS011;12674;51.500;7.552;2024-02-21T08:51:35;9.13;;;4.40;;
4986;SDS011;12674;51.500;7.552;2024-02-21T08:53:39;11.93;;;4.53;;
4986;SDS011;12674;51.500;7.552;2024-02-21T08:55:41;11.80;;;4.63;;
4986;SDS011;12674;51.500;7.552;2024-02-21T08:57:45;8.33;;;3.57;;
4986;SDS011;12674;51.500;7.552;2024-02-21T08:59:50;13.47;;;4.30;;
4986;SDS011;12674;51.500;7.552;2024-02-21T09:01:53;9.03;;;3.83;;
4986;SDS011;12674;51.500;7.552;2024-02-21T09:03:57;13.33;;;4.60;;
4986;SDS011;12674;51.500;7.552;2024-02-21T09:06:00;7.73;;;3.83;;
4986;SDS011;12674;51.500;7.552;2024-02-21T09:08:03;5.90;;;4.10;;
4986;SDS011;12674;51.500;7.552;2024-02-21T09:10:07;11.50;;;5.00;;
4986;SDS011;12674;51.500;7.552;2024-02-21T09:12:11;12.77;;;5.20;;
4986;SDS011;12674;51.500;7.552;2024-02-21T09:14:16;18.63;;;5.80;;
4986;SDS011;12674;51.500;7.552;2024-02-21T09:16:21;14.30;;;6.20;;
4986;SDS011;12674;51.500;7.552;2024-02-21T09:18:24;13.60;;;6.40;;
4986;SDS011;12674;51.500;7.552;2024-02-21T09:20:27;15.60;;;6.23;;
4986;SDS011;12674;51.500;7.552;2024-02-21T09:22:30;20.63;;;6.40;;
4986;SDS011;12674;51.500;7.552;2024-02-21T09:24:36;17.20;;;6.30;;
4986;SDS011;12674;51.500;7.552;2024-02-21T09:26:39;11.10;;;6.10;;
4986;SDS011;12674;51.500;7.552;2024-02-21T09:28:42;12.77;;;6.77;;
4986;SDS011;12674;51.500;7.552;2024-02-21T09:30:45;14.63;;;7.10;;
4986;SDS011;12674;51.500;7.552;2024-02-21T09:32:49;14.40;;;7.30;;
4986;SDS011;12674;51.500;7.552;2024-02-21T09:34:52;14.20;;;6.23;;
4986;SDS011;12674;51.500;7.552;2024-02-21T09:37:00;14.37;;;5.93;;
4986;SDS011;12674;51.500;7.552;2024-02-21T09:39:03;11.00;;;5.67;;
4986;SDS011;12674;51.500;7.552;2024-02-21T09:41:08;14.97;;;6.47;;
4986;SDS011;12674;51.500;7.552;2024-02-21T09:43:23;19.33;;;5.93;;
4986;SDS011;12674;51.500;7.552;2024-02-21T09:45:26;12.13;;;5.47;;
4986;SDS011;12674;51.500;7.552;2024-02-21T09:47:32;11.43;;;5.50;;
4986;SDS011;12674;51.500;7.552;2024-02-21T09:49:42;8.97;;;4.90;;
4986;SDS011;12674;51.500;7.552;2024-02-21T09:51:45;12.97;;;5.60;;
4986;SDS011;12674;51.500;7.552;2024-02-21T09:53:50;12.60;;;5.60;;
4986;SDS011;12674;51.500;7.552;2024-02-21T09:56:07;18.20;;;5.77;;
4986;SDS011;12674;51.500;7.552;2024-02-21T09:58:15;11.20;;;5.57;;
4986;SDS011;12674;51.500;7.552;2024-02-21T10:00:17;14.00;;;4.97;;
4986;SDS011;12674;51.500;7.552;2024-02-21T10:02:23;11.60;;;5.03;;
4986;SDS011;12674;51.500;7.552;2024-02-21T10:04:27;17.77;;;5.30;;
4986;SDS011;12674;51.500;7.552;2024-02-21T10:06:32;12.00;;;4.20;;
4986;SDS011;12674;51.500;7.552;2024-02-21T10:08:34;12.17;;;4.40;;
4986;SDS011;12674;51.500;7.552;2024-02-21T10:10:40;19.33;;;4.80;;
4986;SDS011;12674;51.500;7.552;2024-02-21T10:12:48;13.97;;;4.50;;
4986;SDS011;12674;51.500;7.552;2024-02-21T10:14:59;16.73;;;4.20;;
4986;SDS011;12674;51.500;7.552;2024-02-21T10:17:02;13.70;;;5.10;;
4986;SDS011;12674;51.500;7.552;2024-02-21T10:19:18;12.83;;;4.37;;
4986;SDS011;12674;51.500;7.552;2024-02-21T10:21:21;14.07;;;4.60;;
4986;SDS011;12674;51.500;7.552;2024-02-21T10:23:26;15.77;;;4.73;;
4986;SDS011;12674;51.500;7.552;2024-02-21T10:25:29;14.33;;;4.67;;
4986;SDS011;12674;51.500;7.552;2024-02-21T10:27:32;20.50;;;5.00;;
4986;SDS011;12674;51.500;7.552;2024-02-21T10:29:35;16.73;;;5.13;;
4986;SDS011;12674;51.500;7.552;2024-02-21T10:31:38;15.63;;;4.70;;
4986;SDS011;12674;51.500;7.552;2024-02-21T10:33:41;16.87;;;5.30;;
4986;SDS011;12674;51.500;7.552;2024-02-21T10:35:44;15.10;;;5.30;;
4986;SDS011;12674;51.500;7.552;2024-02-21T10:37:47;18.40;;;5.30;;
4986;SDS011;12674;51.500;7.552;2024-02-21T10:39:53;13.93;;;5.07;;
4986;SDS011;12674;51.500;7.552;2024-02-21T10:41:56;12.50;;;4.53;;
4986;SDS011;12674;51.500;7.552;2024-02-21T10:44:02;11.10;;;4.23;;
4986;SDS011;12674;51.500;7.552;2024-02-21T10:46:08;18.97;;;4.57;;
4986;SDS011;12674;51.500;7.552;2024-02-21T10:48:10;18.60;;;4.83;;
4986;SDS011;12674;51.500;7.552;2024-02-21T10:50:14;13.67;;;4.13;;
4986;SDS011;12674;51.500;7.552;2024-02-21T10:52:20;12.13;;;4.27;;
4986;SDS011;12674;51.500;7.552;2024-02-21T10:54:30;13.27;;;4.83;;
4986;SDS011;12674;51.500;7.552;2024-02-21T10:56:42;13.63;;;4.83;;
4986;SDS011;12674;51.500;7.552;2024-02-21T10:58:45;14.57;;;5.60;;
4986;SDS011;12674;51.500;7.552;2024-02-21T11:00:49;18.43;;;5.40;;
4986;SDS011;12674;51.500;7.552;2024-02-21T11:02:52;20.60;;;5.70;;
4986;SDS011;12674;51.500;7.552;2024-02-21T11:04:55;13.20;;;5.13;;
4986;SDS011;12674;51.500;7.552;2024-02-21T11:06:59;15.03;;;5.90;;
4986;SDS011;12674;51.500;7.552;2024-02-21T11:09:10;14.33;;;5.67;;
4986;SDS011;12674;51.500;7.552;2024-02-21T11:11:14;17.60;;;4.60;;
4986;SDS011;12674;51.500;7.552;2024-02-21T11:13:37;15.80;;;6.30;;
4986;SDS011;12674;51.500;7.552;2024-02-21T11:15:40;16.40;;;5.50;;
4986;SDS011;12674;51.500;7.552;2024-02-21T11:17:42;17.07;;;5.80;;
4986;SDS011;12674;51.500;7.552;2024-02-21T11:20:10;10.23;;;5.30;;
4986;SDS011;12674;51.500;7.552;2024-02-21T11:22:15;13.50;;;5.33;;
4986;SDS011;12674;51.500;7.552;2024-02-21T11:24:25;19.50;;;5.37;;
4986;SDS011;12674;51.500;7.552;2024-02-21T11:26:29;8.53;;;4.93;;
4986;SDS011;12674;51.500;7.552;2024-02-21T11:28:32;11.40;;;5.73;;
4986;SDS011;12674;51.500;7.552;2024-02-21T11:30:36;10.53;;;4.60;;
4986;SDS011;12674;51.500;7.552;2024-02-21T11:32:40;11.50;;;4.33;;
4986;SDS011;12674;51.500;7.552;2024-02-21T11:34:52;10.83;;;4.40;;
4986;SDS011;12674;51.500;7.552;2024-02-21T11:36:56;15.20;;;4.00;;
4986;SDS011;12674;51.500;7.552;2024-02-21T11:39:03;12.10;;;4.43;;
4986;SDS011;12674;51.500;7.552;2024-02-21T11:41:08;13.30;;;4.17;;
4986;SDS011;12674;51.500;7.552;2024-02-21T11:43:13;10.80;;;3.77;;
4986;SDS011;12674;51.500;7.552;2024-02-21T11:45:17;8.40;;;4.20;;
4986;SDS011;12674;51.500;7.552;2024-02-21T11:47:24;10.90;;;4.10;;
4986;SDS011;12674;51.500;7.552;2024-02-21T11:49:28;11.43;;;4.23;;
4986;SDS011;12674;51.500;7.552;2024-02-21T11:51:31;14.10;;;4.00;;
4986;SDS011;12674;51.500;7.552;2024-02-21T11:53:34;7.10;;;3.43;;
4986;SDS011;12674;51.500;7.552;2024-02-21T11:55:47;11.63;;;3.80;;
4986;SDS011;12674;51.500;7.552;2024-02-21T11:57:50;6.67;;;3.13;;
4986;SDS011;12674;51.500;7.552;2024-02-21T11:59:53;10.03;;;3.70;;
4986;SDS011;12674;51.500;7.552;2024-02-21T12:02:01;11.40;;;3.83;;
4986;SDS011;12674;51.500;7.552;2024-02-21T12:04:06;8.07;;;3.20;;
4986;SDS011;12674;51.500;7.552;2024-02-21T12:06:09;11.93;;;4.00;;
4986;SDS011;12674;51.500;7.552;2024-02-21T12:08:12;11.10;;;3.90;;
4986;SDS011;12674;51.500;7.552;2024-02-21T12:10:14;8.43;;;3.30;;
4986;SDS011;12674;51.500;7.552;2024-02-21T12:12:19;14.00;;;3.40;;
4986;SDS011;12674;51.500;7.552;2024-02-21T12:14:22;10.10;;;3.13;;
4986;SDS011;12674;51.500;7.552;2024-02-21T12:16:27;8.77;;;2.60;;
4986;SDS011;12674;51.500;7.552;2024-02-21T12:18:31;11.80;;;3.60;;
4986;SDS011;12674;51.500;7.552;2024-02-21T12:20:35;10.03;;;2.80;;
4986;SDS011;12674;51.500;7.552;2024-02-21T12:22:38;10.80;;;3.30;;
4986;SDS011;12674;51.500;7.552;2024-02-21T12:24:41;11.53;;;3.23;;
4986;SDS011;12674;51.500;7.552;2024-02-21T12:26:48;11.43;;;3.43;;